createdAt,value
2023-02-22T00:02:37.625Z,100585.75
2023-02-22T00:05:45.219Z,100586.56
2023-02-22T00:08:52.947Z,100586.56
2023-02-22T00:11:56.488Z,100585.59
2023-02-22T00:14:59.681Z,100593.25
2023-02-22T00:18:03.827Z,100592.16
2023-02-22T00:21:10.725Z,100594.53
2023-02-22T00:24:23.309Z,100589.13
2023-02-22T00:27:26.316Z,100591.50
2023-02-22T00:30:32.043Z,100592.25
2023-02-22T00:33:36.629Z,100598.41
2023-02-22T00:36:44.485Z,100597.38
2023-02-22T00:39:48.746Z,100602.56
2023-02-22T00:42:52.617Z,100599.78
2023-02-22T00:45:58.066Z,100605.88
2023-02-22T00:49:01.269Z,100609.34
2023-02-22T00:52:06.500Z,100605.16
2023-02-22T00:55:16.156Z,100602.47
2023-02-22T00:58:19.010Z,100606.69
2023-02-22T01:01:24.170Z,100598.69
2023-02-22T01:04:27.434Z,100594.59
2023-02-22T01:07:30.474Z,100596.16
2023-02-22T01:10:34.588Z,100600.38
2023-02-22T01:13:37.454Z,100592.44
2023-02-22T01:16:40.295Z,100594.31
2023-02-22T01:19:43.825Z,100575.78
2023-02-22T01:22:48.694Z,100586.50
2023-02-22T01:25:51.433Z,100580.50
2023-02-22T01:28:54.304Z,100586.72
2023-02-22T01:31:59.528Z,100590.47
2023-02-22T01:35:05.005Z,100586.47
2023-02-22T01:38:10.247Z,100580.53
2023-02-22T01:41:15.293Z,100578.06
2023-02-22T01:44:28.150Z,100582.44
2023-02-22T01:47:30.611Z,100587.03
2023-02-22T01:50:39.316Z,100580.19
2023-02-22T01:53:54.559Z,100576.78
2023-02-22T01:57:08.486Z,100584.62
2023-02-22T02:00:17.287Z,100580.19
2023-02-22T02:03:28.069Z,100577.81
2023-02-22T02:06:33.969Z,100577.75
2023-02-22T02:09:40.608Z,100575.00
2023-02-22T02:12:50.012Z,100573.97
2023-02-22T02:15:55.280Z,100570.34
2023-02-22T02:19:01.461Z,100566.59
2023-02-22T02:22:25.989Z,100562.87
2023-02-22T02:25:37.893Z,100573.19
2023-02-22T02:28:51.735Z,100572.13
2023-02-22T02:32:16.576Z,100576.53
2023-02-22T02:35:40.165Z,100576.34
2023-02-22T02:38:49.948Z,100588.28
2023-02-22T02:41:56.605Z,100576.72
2023-02-22T02:45:10.028Z,100572.37
2023-02-22T02:48:16.804Z,100584.81
2023-02-22T02:51:21.451Z,100572.94
2023-02-22T02:54:26.942Z,100571.25
2023-02-22T02:57:29.844Z,100578.38
2023-02-22T03:00:43.042Z,100578.19
2023-02-22T03:04:00.143Z,100576.44
2023-02-22T03:07:07.085Z,100586.16
2023-02-22T03:10:39.703Z,100577.56
2023-02-22T03:14:07.144Z,100578.53
2023-02-22T03:17:16.861Z,100584.59
2023-02-22T03:20:31.965Z,100582.09
2023-02-22T03:23:41.911Z,100582.97
2023-02-22T03:27:18.175Z,100572.59
2023-02-22T03:30:33.767Z,100586.53
2023-02-22T03:33:42.758Z,100580.38
2023-02-22T03:36:49.957Z,100580.53
2023-02-22T03:40:01.945Z,100575.31
2023-02-22T03:43:16.864Z,100589.94
2023-02-22T03:46:22.257Z,100579.28
2023-02-22T03:49:36.898Z,100584.47
2023-02-22T03:52:41.866Z,100586.25
2023-02-22T03:55:51.816Z,100597.44
2023-02-22T03:58:55.831Z,100581.88
2023-02-22T04:01:59.735Z,100594.59
2023-02-22T04:05:03.094Z,100596.22
2023-02-22T04:08:06.997Z,100600.22
2023-02-22T04:11:11.222Z,100602.75
2023-02-22T04:14:15.562Z,100597.41
2023-02-22T04:17:19.589Z,100605.06
2023-02-22T04:20:25.819Z,100594.59
2023-02-22T04:23:29.462Z,100598.97
2023-02-22T04:26:35.002Z,100582.22
2023-02-22T04:29:38.536Z,100593.94
2023-02-22T04:32:41.944Z,100595.66
2023-02-22T04:35:46.226Z,100590.44
2023-02-22T04:38:50.924Z,100597.34
2023-02-22T04:41:56.159Z,100594.09
2023-02-22T04:45:00.002Z,100600.22
2023-02-22T04:48:04.979Z,100602.81
2023-02-22T04:51:09.393Z,100610.16
2023-02-22T04:54:17.589Z,100610.97
2023-02-22T04:57:21.402Z,100608.31
2023-02-22T05:00:28.893Z,100612.69
2023-02-22T05:03:32.141Z,100615.22
2023-02-22T05:06:37.062Z,100607.50
2023-02-22T05:09:40.012Z,100607.81
2023-02-22T05:12:45.649Z,100607.16
2023-02-22T05:15:48.455Z,100605.44
2023-02-22T05:18:52.213Z,100609.06
2023-02-22T05:21:56.565Z,100606.53
2023-02-22T05:24:59.635Z,100610.91
2023-02-22T05:28:11.179Z,100617.06
2023-02-22T05:31:16.276Z,100619.75
2023-02-22T05:34:24.096Z,100629.03
2023-02-22T05:37:28.918Z,100627.53
2023-02-22T05:40:35.076Z,100632.03
2023-02-22T05:43:40.045Z,100629.44
2023-02-22T05:46:43.334Z,100631.31
2023-02-22T05:49:55.356Z,100635.69
2023-02-22T05:53:07.014Z,100633.28
2023-02-22T05:56:15.961Z,100632.69
2023-02-22T05:59:22.133Z,100634.97
2023-02-22T06:02:25.745Z,100641.53
2023-02-22T06:05:29.952Z,100641.31
2023-02-22T06:08:37.204Z,100650.47
2023-02-22T06:11:40.926Z,100643.09
2023-02-22T06:14:46.247Z,100640.50
2023-02-22T06:17:51.112Z,100657.63
2023-02-22T06:20:55.021Z,100653.84
2023-02-22T06:24:00.536Z,100648.41
2023-02-22T06:27:05.995Z,100661.03
2023-02-22T06:30:15.859Z,100663.16
2023-02-22T06:33:21.090Z,100665.88
2023-02-22T06:36:28.887Z,100668.72
2023-02-22T06:39:34.384Z,100672.00
2023-02-22T06:42:39.116Z,100671.37
2023-02-22T06:45:44.062Z,100682.38
2023-02-22T06:48:54.975Z,100682.06
2023-02-22T06:52:01.319Z,100682.00
2023-02-22T06:55:13.865Z,100689.09
2023-02-22T06:58:19.204Z,100684.84
2023-02-22T07:01:32.133Z,100683.38
2023-02-22T07:04:37.083Z,100685.81
2023-02-22T07:07:40.815Z,100695.31
2023-02-22T07:10:45.294Z,100689.59
2023-02-22T07:13:51.301Z,100700.06
2023-02-22T07:16:55.181Z,100690.16
2023-02-22T07:19:58.674Z,100678.25
2023-02-22T07:23:05.929Z,100674.44
2023-02-22T07:26:09.017Z,100672.78
2023-02-22T07:29:15.125Z,100677.28
2023-02-22T07:32:18.611Z,100671.94
2023-02-22T07:35:25.862Z,100673.38
2023-02-22T07:38:30.576Z,100678.25
2023-02-22T07:41:40.409Z,100686.66
2023-02-22T07:44:48.560Z,100684.09
2023-02-22T07:47:52.956Z,100682.34
2023-02-22T07:50:56.835Z,100691.50
2023-02-22T07:54:01.686Z,100687.84
2023-02-22T07:57:08.165Z,100695.69
2023-02-22T08:00:19.057Z,100703.62
2023-02-22T08:03:32.130Z,100695.53
2023-02-22T08:06:37.065Z,100710.72
2023-02-22T08:09:42.192Z,100703.62
2023-02-22T08:12:58.417Z,100705.06
2023-02-22T08:16:01.813Z,100695.75
2023-02-22T08:19:04.810Z,100708.50
2023-02-22T08:22:07.869Z,100696.31
2023-02-22T08:25:12.610Z,100696.31
2023-02-22T08:28:21.706Z,100692.66
2023-02-22T08:31:25.628Z,100686.41
2023-02-22T08:34:30.333Z,100696.88
2023-02-22T08:37:33.669Z,100697.19
2023-02-22T08:40:39.944Z,100650.41
2023-02-22T08:43:45.293Z,100701.44
2023-02-22T08:46:49.412Z,100699.94
2023-02-22T08:49:52.471Z,100694.56
2023-02-22T08:53:01.448Z,100700.31
2023-02-22T08:56:07.244Z,100672.13
2023-02-22T08:59:11.090Z,100694.47
2023-02-22T09:02:20.525Z,100686.38
2023-02-22T09:05:24.066Z,100694.56
2023-02-22T09:08:27.992Z,100707.03
2023-02-22T09:11:32.233Z,100703.88
2023-02-22T09:14:35.183Z,100707.66
2023-02-22T09:17:38.411Z,100698.47
2023-02-22T09:20:42.117Z,100702.16
2023-02-22T09:23:48.431Z,100697.16
2023-02-22T09:27:03.084Z,100703.91
2023-02-22T09:30:27.292Z,100700.41
2023-02-22T09:33:32.096Z,100693.22
2023-02-22T09:36:45.934Z,100693.72
2023-02-22T09:39:51.458Z,100685.34
2023-02-22T09:43:27.016Z,100679.50
2023-02-22T09:46:35.457Z,100676.72
2023-02-22T09:50:15.950Z,100688.56
2023-02-22T09:53:41.951Z,100682.03
2023-02-22T09:56:48.886Z,100681.31
2023-02-22T10:00:02.094Z,100687.09
2023-02-22T10:03:37.235Z,100676.59
2023-02-22T10:06:54.307Z,100684.34
2023-02-22T10:10:06.529Z,100673.91
2023-02-22T10:13:29.003Z,100673.47
2023-02-22T10:16:53.338Z,100667.44
2023-02-22T10:20:27.010Z,100673.94
2023-02-22T10:23:46.714Z,100676.22
2023-02-22T10:26:51.282Z,100672.31
2023-02-22T10:30:25.411Z,100672.59
2023-02-22T10:34:03.268Z,100668.28
2023-02-22T10:37:27.228Z,100667.63
2023-02-22T10:40:34.675Z,100662.78
2023-02-22T10:43:41.053Z,100667.41
2023-02-22T10:46:48.213Z,100665.62
2023-02-22T10:49:56.601Z,100667.53
2023-02-22T10:53:06.906Z,100658.88
2023-02-22T10:56:18.699Z,100657.91
2023-02-22T10:59:39.490Z,100654.03
2023-02-22T11:02:54.591Z,100648.50
2023-02-22T11:06:23.036Z,100646.81
2023-02-22T11:09:29.273Z,100657.13
2023-02-22T11:12:40.666Z,100646.31
2023-02-22T11:15:57.060Z,100647.34
2023-02-22T11:19:14.397Z,100646.72
2023-02-22T11:22:30.012Z,100641.47
2023-02-22T11:25:38.516Z,100636.06
2023-02-22T11:28:50.804Z,100639.16
2023-02-22T11:31:55.639Z,100633.75
2023-02-22T11:35:30.127Z,100628.56
2023-02-22T11:38:39.204Z,100629.66
2023-02-22T11:41:42.778Z,100626.69
2023-02-22T11:44:47.118Z,100622.97
2023-02-22T11:47:57.074Z,100624.59
2023-02-22T11:51:14.569Z,100625.03
2023-02-22T11:54:53.957Z,100618.34
2023-02-22T11:58:27.987Z,100634.38
2023-02-22T12:01:47.307Z,100627.16
2023-02-22T12:05:19.192Z,100618.53
2023-02-22T12:08:52.811Z,100615.41
2023-02-22T12:12:25.274Z,100615.38
2023-02-22T12:15:40.169Z,100613.59
2023-02-22T12:18:46.988Z,100611.22
2023-02-22T12:21:57.183Z,100603.31
2023-02-22T12:25:09.606Z,100603.97
2023-02-22T12:28:28.175Z,100605.63
2023-02-22T12:31:38.472Z,100601.38
2023-02-22T12:35:39.916Z,100597.56
2023-02-22T12:38:50.333Z,100594.94
2023-02-22T12:42:07.046Z,100595.97
2023-02-22T12:45:25.088Z,100592.56
2023-02-22T12:49:03.280Z,100584.91
2023-02-22T12:52:33.965Z,100580.94
2023-02-22T12:55:42.612Z,100579.34
2023-02-22T12:59:03.664Z,100585.22
2023-02-22T13:02:31.329Z,100572.00
2023-02-22T13:05:39.945Z,100571.88
2023-02-22T13:08:55.934Z,100569.22
2023-02-22T13:12:13.963Z,100567.81
2023-02-22T13:15:49.757Z,100570.59
2023-02-22T13:19:14.336Z,100563.75
2023-02-22T13:22:30.055Z,100576.06
2023-02-22T13:25:50.979Z,100570.06
2023-02-22T13:29:06.021Z,100560.44
2023-02-22T13:32:40.787Z,100568.38
2023-02-22T13:36:15.818Z,100570.03
2023-02-22T13:39:46.969Z,100573.34
2023-02-22T13:43:15.047Z,100568.75
2023-02-22T13:46:47.010Z,100563.47
2023-02-22T13:50:23.956Z,100572.84
2023-02-22T13:53:37.139Z,100577.03
2023-02-22T13:56:51.586Z,100574.53
2023-02-22T14:00:43.079Z,100579.81
2023-02-22T14:03:48.989Z,100572.13
2023-02-22T14:07:10.813Z,100567.59
2023-02-22T14:10:48.193Z,100567.53
2023-02-22T14:13:53.803Z,100570.03
2023-02-22T14:17:19.023Z,100560.53
2023-02-22T14:20:40.858Z,100555.22
2023-02-22T14:23:53.263Z,100562.22
2023-02-22T14:27:05.162Z,100560.50
2023-02-22T14:30:31.016Z,100566.78
2023-02-22T14:34:07.001Z,100565.03
2023-02-22T14:37:24.850Z,100558.81
2023-02-22T14:40:44.892Z,100557.19
2023-02-22T14:43:55.996Z,100558.97
2023-02-22T14:47:05.977Z,100554.12
2023-02-22T14:50:25.904Z,100559.44
2023-02-22T14:53:45.265Z,100554.09
2023-02-22T14:57:12.990Z,100553.31
2023-02-22T15:00:50.124Z,100552.31
2023-02-22T15:04:07.797Z,100547.94
2023-02-22T15:07:30.909Z,100552.28
2023-02-22T15:10:46.183Z,100546.75
2023-02-22T15:13:54.266Z,100552.00
2023-02-22T15:22:09.220Z,100550.13
2023-02-22T15:25:26.439Z,100546.56
2023-02-22T15:28:38.376Z,100542.03
2023-02-22T15:31:48.244Z,100542.69
2023-02-22T15:34:52.135Z,100536.41
2023-02-22T15:38:11.012Z,100531.91
2023-02-22T15:41:27.851Z,100525.66
2023-02-22T15:44:42.991Z,100529.84
2023-02-22T15:47:47.049Z,100524.44
2023-02-22T15:51:28.061Z,100528.69
2023-02-22T15:54:39.477Z,100529.50
2023-02-22T15:57:43.431Z,100542.41
2023-02-22T16:00:57.911Z,100537.94
2023-02-22T16:04:05.969Z,100541.34
2023-02-22T16:07:17.355Z,100537.72
2023-02-22T16:10:28.992Z,100535.84
2023-02-22T16:13:35.651Z,100539.22
2023-02-22T16:16:45.028Z,100540.81
2023-02-22T16:19:50.495Z,100539.72
2023-02-22T16:23:03.882Z,100543.03
2023-02-22T16:26:23.069Z,100548.94
2023-02-22T16:29:28.997Z,100547.06
2023-02-22T16:32:34.693Z,100550.44
2023-02-22T16:35:52.484Z,100551.22
2023-02-22T16:39:06.044Z,100558.94
2023-02-22T16:42:24.945Z,100558.75
2023-02-22T16:45:42.566Z,100562.03
2023-02-22T16:49:03.527Z,100561.75
2023-02-22T16:52:12.981Z,100561.63
2023-02-22T16:55:22.952Z,100565.97
2023-02-22T16:58:43.138Z,100569.31
2023-02-22T17:01:58.863Z,100570.03
2023-02-22T17:05:03.851Z,100568.91
2023-02-22T17:08:22.886Z,100554.56
2023-02-22T17:11:42.858Z,100567.50
2023-02-22T17:14:54.988Z,100558.31
2023-02-22T17:18:23.076Z,100575.75
2023-02-22T17:21:27.895Z,100574.62
2023-02-22T17:24:34.062Z,100568.22
2023-02-22T17:27:46.282Z,100565.31
2023-02-22T17:30:56.193Z,100568.53
2023-02-22T17:34:15.957Z,100570.00
2023-02-22T17:37:25.734Z,100563.06
2023-02-22T17:40:36.900Z,100551.53
2023-02-22T17:43:43.471Z,100565.44
2023-02-22T17:46:53.174Z,100574.81
2023-02-22T17:50:09.032Z,100559.06
2023-02-22T17:53:25.013Z,100563.34
2023-02-22T17:56:32.978Z,100562.28
2023-02-22T17:59:45.908Z,100561.28
2023-02-22T18:02:59.399Z,100560.97
2023-02-22T18:06:03.461Z,100563.59
2023-02-22T18:09:18.950Z,100566.97
2023-02-22T18:12:22.654Z,100563.34
2023-02-22T18:15:37.024Z,100561.47
2023-02-22T18:18:46.956Z,100556.97
2023-02-22T18:21:55.094Z,100551.53
2023-02-22T18:25:13.828Z,100562.00
2023-02-22T18:28:25.117Z,100554.97
2023-02-22T18:31:37.009Z,100563.66
2023-02-22T18:34:41.562Z,100564.47
2023-02-22T18:37:52.167Z,100559.22
2023-02-22T18:41:07.186Z,100557.44
2023-02-22T18:44:27.236Z,100558.00
2023-02-22T18:47:51.842Z,100563.84
2023-02-22T18:51:06.053Z,100564.56
2023-02-22T18:54:23.140Z,100568.94
2023-02-22T18:57:37.976Z,100575.78
2023-02-22T19:00:45.312Z,100575.72
2023-02-22T19:03:50.239Z,100577.62
2023-02-22T19:07:01.279Z,100575.84
2023-02-22T19:10:12.158Z,100579.28
2023-02-22T19:13:30.960Z,100566.97
2023-02-22T19:16:52.871Z,100575.09
2023-02-22T19:20:14.008Z,100577.62
2023-02-22T19:23:39.868Z,100570.66
2023-02-22T19:26:53.987Z,100569.81
2023-02-22T19:30:17.345Z,100569.50
2023-02-22T19:33:27.031Z,100566.72
2023-02-22T19:36:36.038Z,100567.50
2023-02-22T19:39:44.035Z,100578.72
2023-02-22T19:43:09.865Z,100580.38
2023-02-22T19:46:19.029Z,100574.81
2023-02-22T19:49:34.947Z,100583.25
2023-02-22T19:52:47.209Z,100583.06
2023-02-22T19:55:55.949Z,100591.75
2023-02-22T19:59:23.875Z,100596.06
2023-02-22T20:02:42.992Z,100584.78
2023-02-22T20:05:50.210Z,100578.44
2023-02-22T20:08:59.640Z,100586.16
2023-02-22T20:12:08.058Z,100588.56
2023-02-22T20:15:19.879Z,100594.66
2023-02-22T20:18:32.981Z,100605.25
2023-02-22T20:21:42.964Z,100584.78
2023-02-22T20:24:53.949Z,100594.59
2023-02-22T20:28:06.926Z,100597.94
2023-02-22T20:31:18.499Z,100589.87
2023-02-22T20:34:33.634Z,100598.44
2023-02-22T20:37:47.874Z,100599.97
2023-02-22T20:41:14.103Z,100603.47
2023-02-22T20:44:30.984Z,100601.84
2023-02-22T20:47:41.923Z,100595.25
2023-02-22T20:50:50.409Z,100596.09
2023-02-22T20:54:02.573Z,100594.94
2023-02-22T20:57:10.316Z,100608.00
2023-02-22T21:00:19.213Z,100601.72
2023-02-22T21:03:25.537Z,100606.72
2023-02-22T21:06:50.165Z,100607.41
2023-02-22T21:10:09.250Z,100603.03
2023-02-22T21:13:26.123Z,100604.72
2023-02-22T21:16:35.772Z,100612.47
2023-02-22T21:19:41.101Z,100613.28
2023-02-22T21:22:51.283Z,100601.66
2023-02-22T21:25:58.253Z,100615.12
2023-02-22T21:29:11.162Z,100613.97
2023-02-22T21:32:15.483Z,100604.31
2023-02-22T21:35:22.351Z,100616.44
2023-02-22T21:38:27.121Z,100613.75
2023-02-22T21:41:33.396Z,100612.19
2023-02-22T21:44:41.735Z,100598.03
2023-02-22T21:47:49.287Z,100613.63
2023-02-22T21:50:54.526Z,100618.69
2023-02-22T21:54:01.546Z,100621.22
2023-02-22T21:57:10.146Z,100617.66
2023-02-22T22:00:17.553Z,100619.34
2023-02-22T22:03:24.921Z,100611.41
2023-02-22T22:06:34.790Z,100620.00
2023-02-22T22:09:42.902Z,100614.88
2023-02-22T22:12:46.552Z,100616.66
2023-02-22T22:15:50.442Z,100616.66
2023-02-22T22:18:54.074Z,100607.78
2023-02-22T22:21:58.483Z,100611.94
2023-02-22T22:25:03.554Z,100610.97
2023-02-22T22:28:08.964Z,100604.91
2023-02-22T22:31:14.285Z,100611.72
2023-02-22T22:34:19.503Z,100605.44
2023-02-22T22:37:22.998Z,100610.84
2023-02-22T22:40:31.820Z,100609.97
2023-02-22T22:43:37.146Z,100604.47
2023-02-22T22:46:41.026Z,100613.97
2023-02-22T22:49:44.958Z,100609.53
2023-02-22T22:52:49.186Z,100614.88
2023-02-22T22:55:54.294Z,100609.53
2023-02-22T22:58:59.154Z,100610.06
2023-02-22T23:02:10.557Z,100621.94
2023-02-22T23:05:19.019Z,100628.09
2023-02-22T23:08:29.380Z,100633.81
2023-02-22T23:11:35.542Z,100624.19
2023-02-22T23:14:45.035Z,100623.37
2023-02-22T23:17:48.801Z,100629.44
2023-02-22T23:20:55.386Z,100631.22
2023-02-22T23:23:58.764Z,100628.56
2023-02-22T23:27:02.146Z,100634.94
2023-02-22T23:30:07.279Z,100627.88
2023-02-22T23:33:13.018Z,100638.34
2023-02-22T23:36:20.113Z,100630.13
2023-02-22T23:39:24.042Z,100638.72
2023-02-22T23:42:28.128Z,100639.69
2023-02-22T23:45:39.793Z,100634.50
2023-02-22T23:48:48.137Z,100632.56
2023-02-22T23:51:51.330Z,100633.41
2023-02-22T23:54:54.367Z,100631.53
2023-02-22T23:57:59.602Z,100633.41
